Time;durP1;ratioP1;P1;durP2;ratioP2;P2;SDS_P1;SDS_P2;PMS_P1;PMS_P2;Temp;Humidity;BMP_temperature;BMP_pressure;BME280_temperature;BME280_humidity;BME280_pressure;Samples;Min_cycle;Max_cycle;Signal;HPM_P1;HPM_P2
2023/04/22 00:02:03;;;;;;;14.15;7.10;;;10.90;99.90;;;;;;5072746;28;20241;-84
2023/04/22 00:04:32;;;;;;;9.38;7.63;;;10.90;99.90;;;;;;5073291;28;20272;-84
2023/04/22 00:07:01;;;;;;;11.75;7.80;;;10.90;99.90;;;;;;5072552;28;20288;-84
2023/04/22 00:09:29;;;;;;;10.77;8.63;;;10.90;99.90;;;;;;5073362;28;20212;-84
2023/04/22 00:11:57;;;;;;;10.45;6.47;;;10.80;99.90;;;;;;5072750;28;20253;-84
2023/04/22 00:14:26;;;;;;;8.25;7.18;;;10.80;99.90;;;;;;5072909;28;20205;-84
2023/04/22 00:16:57;;;;;;;8.57;7.45;;;10.80;99.90;;;;;;5073144;28;20236;-84
2023/04/22 00:19:25;;;;;;;7.10;6.35;;;10.70;99.90;;;;;;5073085;28;20201;-84
2023/04/22 00:21:53;;;;;;;9.35;6.43;;;10.70;99.90;;;;;;5073028;28;20193;-84
2023/04/22 00:24:21;;;;;;;6.80;6.10;;;10.70;99.90;;;;;;5072843;28;20288;-84
2023/04/22 00:26:50;;;;;;;10.98;7.05;;;10.70;99.90;;;;;;5072583;28;20220;-84
2023/04/22 00:29:19;;;;;;;7.65;6.05;;;10.70;99.90;;;;;;5072271;28;20216;-84
2023/04/22 00:31:47;;;;;;;8.48;6.30;;;10.70;99.90;;;;;;5072690;28;20291;-84
2023/04/22 00:34:18;;;;;;;7.50;6.50;;;10.70;99.90;;;;;;5072451;28;20197;-84
2023/04/22 00:36:47;;;;;;;7.53;6.75;;;10.60;99.90;;;;;;5072660;28;20224;-84
2023/04/22 00:39:15;;;;;;;8.15;6.40;;;10.50;99.90;;;;;;5072663;28;20201;-84
2023/04/22 00:41:44;;;;;;;9.25;6.40;;;10.50;99.90;;;;;;5072293;28;20231;-84
2023/04/22 00:44:13;;;;;;;7.13;6.18;;;10.40;99.90;;;;;;5072731;28;20201;-84
2023/04/22 00:46:41;;;;;;;7.45;6.47;;;10.40;99.90;;;;;;5072514;28;20197;-84
2023/04/22 00:49:10;;;;;;;28.15;6.93;;;10.40;99.90;;;;;;5072443;28;20292;-84
2023/04/22 00:51:39;;;;;;;7.70;6.68;;;10.40;99.90;;;;;;5071798;28;20201;-84
2023/04/22 00:54:07;;;;;;;6.93;5.90;;;10.40;99.90;;;;;;5072240;28;20287;-84
2023/04/22 00:56:38;;;;;;;7.32;6.63;;;10.40;99.90;;;;;;5071903;28;20209;-84
2023/04/22 00:59:07;;;;;;;8.63;6.60;;;10.40;99.90;;;;;;5071896;28;20213;-84
2023/04/22 01:01:36;;;;;;;11.10;7.32;;;10.40;99.90;;;;;;5072395;28;20284;-84
2023/04/22 01:04:05;;;;;;;6.93;5.50;;;10.40;99.90;;;;;;5072729;28;20204;-84
2023/04/22 01:06:36;;;;;;;11.20;6.32;;;10.30;99.90;;;;;;5072325;28;20232;-84
2023/04/22 01:09:07;;;;;;;6.28;5.75;;;10.30;99.90;;;;;;5071775;28;20205;-84
2023/04/22 01:11:36;;;;;;;7.35;5.00;;;10.30;99.90;;;;;;5071943;28;20197;-84
2023/04/22 01:14:05;;;;;;;8.43;7.18;;;10.20;99.90;;;;;;5072437;28;20309;-84
2023/04/22 01:16:37;;;;;;;7.55;5.32;;;10.20;99.90;;;;;;5071869;28;20193;-84
2023/04/22 01:19:07;;;;;;;7.18;6.18;;;10.20;99.90;;;;;;5072316;28;20251;-84
2023/04/22 01:21:36;;;;;;;6.18;5.47;;;10.20;99.90;;;;;;5071935;28;20197;-84
2023/04/22 01:24:07;;;;;;;6.57;5.72;;;10.10;99.90;;;;;;5072051;28;20304;-84
2023/04/22 01:26:36;;;;;;;13.52;6.18;;;10.10;99.90;;;;;;5071289;28;20265;-84
2023/04/22 01:29:06;;;;;;;11.00;5.72;;;10.10;99.90;;;;;;5071988;28;20197;-84
2023/04/22 01:31:34;;;;;;;6.18;5.43;;;10.00;99.90;;;;;;5071918;28;20209;-84
2023/04/22 01:34:03;;;;;;;8.38;5.43;;;10.00;99.90;;;;;;5072064;28;20296;-84
2023/04/22 01:36:32;;;;;;;6.95;5.90;;;10.00;99.90;;;;;;5066043;28;20197;-84
2023/04/22 01:39:01;;;;;;;12.20;7.05;;;10.00;99.90;;;;;;5072006;28;20221;-84
2023/04/22 01:41:31;;;;;;;6.00;5.25;;;10.00;99.90;;;;;;5071807;28;20247;-84
2023/04/22 01:44:01;;;;;;;6.28;5.68;;;10.10;99.90;;;;;;5072179;28;20225;-84
2023/04/22 01:46:29;;;;;;;7.70;5.97;;;10.10;99.90;;;;;;5065021;28;20284;-84
2023/04/22 01:48:57;;;;;;;5.88;5.15;;;10.10;99.90;;;;;;5075146;28;20284;-84
2023/04/22 01:51:26;;;;;;;7.97;5.32;;;10.10;99.90;;;;;;5076001;28;20193;-84
2023/04/22 01:53:54;;;;;;;5.80;4.88;;;10.10;99.90;;;;;;5075520;28;20231;-84
2023/04/22 01:56:22;;;;;;;6.25;5.65;;;10.10;99.90;;;;;;5075480;28;20216;-84
2023/04/22 01:58:52;;;;;;;7.57;5.78;;;10.10;99.90;;;;;;5075463;28;20300;-84
2023/04/22 02:01:20;;;;;;;5.57;5.00;;;10.10;99.90;;;;;;5075206;28;20212;-84
2023/04/22 02:03:48;;;;;;;6.28;4.97;;;10.10;99.90;;;;;;5075397;28;20225;-84
2023/04/22 02:06:17;;;;;;;6.07;5.22;;;10.10;99.90;;;;;;5074845;28;20201;-84
2023/04/22 02:08:45;;;;;;;6.30;5.15;;;10.10;99.90;;;;;;5076045;28;20201;-84
2023/04/22 02:11:14;;;;;;;7.43;5.25;;;10.10;99.90;;;;;;5075185;28;20288;-84
2023/04/22 02:13:42;;;;;;;6.60;5.68;;;10.10;99.90;;;;;;5075609;28;20221;-84
2023/04/22 02:16:12;;;;;;;7.93;5.93;;;10.10;99.90;;;;;;5075150;28;20399;-84
2023/04/22 02:18:40;;;;;;;7.07;5.25;;;10.10;99.90;;;;;;5075405;28;20319;-84
2023/04/22 02:21:09;;;;;;;6.05;5.45;;;10.00;99.90;;;;;;5075048;28;20209;-84
2023/04/22 02:23:39;;;;;;;5.88;4.93;;;10.00;99.90;;;;;;5074877;28;20315;-84
2023/04/22 02:26:08;;;;;;;5.63;5.00;;;10.00;99.90;;;;;;5074569;28;20209;-83
2023/04/22 02:28:38;;;;;;;5.88;5.38;;;10.00;99.90;;;;;;5074714;28;20202;-84
2023/04/22 02:31:07;;;;;;;9.65;5.68;;;10.00;99.90;;;;;;5074784;28;20199;-84
2023/04/22 02:33:37;;;;;;;9.15;6.05;;;9.90;99.90;;;;;;5074613;28;20229;-84
2023/04/22 02:36:06;;;;;;;6.07;5.50;;;9.90;99.90;;;;;;5074977;28;20265;-84
2023/04/22 02:38:35;;;;;;;6.20;5.60;;;9.90;99.90;;;;;;5074837;28;20320;-84
2023/04/22 02:41:05;;;;;;;6.20;5.53;;;9.90;99.90;;;;;;5074264;28;20201;-84
2023/04/22 02:43:36;;;;;;;9.68;5.50;;;9.80;99.90;;;;;;5054809;28;20308;-84
2023/04/22 02:46:04;;;;;;;6.40;5.80;;;9.80;99.90;;;;;;5064650;28;20253;-84
2023/04/22 02:48:33;;;;;;;5.60;5.10;;;9.70;99.90;;;;;;5074877;28;20193;-84
2023/04/22 02:51:02;;;;;;;9.98;5.82;;;9.80;99.90;;;;;;5074182;28;20201;-84
2023/04/22 02:53:31;;;;;;;6.53;5.05;;;9.70;99.90;;;;;;5074239;28;20221;-83
2023/04/22 02:55:59;;;;;;;6.47;5.68;;;9.70;99.90;;;;;;5073817;28;20198;-83
2023/04/22 02:58:27;;;;;;;8.30;5.93;;;9.60;99.90;;;;;;5073524;28;20213;-83
2023/04/22 03:00:56;;;;;;;5.65;5.20;;;9.60;99.90;;;;;;5073355;28;20236;-84
2023/04/22 03:03:25;;;;;;;7.70;6.05;;;9.60;99.90;;;;;;5074328;28;20281;-84
2023/04/22 03:05:53;;;;;;;9.20;5.70;;;9.60;99.90;;;;;;5074463;28;20195;-83
2023/04/22 03:08:23;;;;;;;5.57;5.00;;;9.50;99.90;;;;;;5074300;28;20201;-84
2023/04/22 03:10:51;;;;;;;9.07;6.07;;;9.40;99.90;;;;;;5073821;28;20197;-84
2023/04/22 03:13:20;;;;;;;5.38;4.82;;;9.40;99.90;;;;;;5074031;28;20221;-84
2023/04/22 03:15:48;;;;;;;6.18;5.53;;;9.40;99.90;;;;;;5074531;28;20300;-84
2023/04/22 03:18:16;;;;;;;5.85;5.35;;;9.40;99.90;;;;;;5074004;28;20297;-84
2023/04/22 03:20:44;;;;;;;8.93;5.72;;;9.40;99.90;;;;;;5054232;28;20228;-83
2023/04/22 03:23:12;;;;;;;5.82;4.90;;;9.40;99.90;;;;;;5071236;28;20217;-84
2023/04/22 03:25:42;;;;;;;6.80;6.13;;;9.30;99.90;;;;;;5074233;28;20287;-82
2023/04/22 03:28:10;;;;;;;9.50;6.45;;;9.30;99.90;;;;;;5074252;28;20207;-80
2023/04/22 03:30:39;;;;;;;10.45;6.65;;;9.30;99.90;;;;;;5061943;28;20305;-80
2023/04/22 03:33:07;;;;;;;6.57;5.97;;;9.30;99.90;;;;;;5073322;28;20214;-81
2023/04/22 03:35:36;;;;;;;8.40;6.60;;;9.30;99.90;;;;;;5073916;28;20387;-81
2023/04/22 03:38:04;;;;;;;7.65;6.07;;;9.30;99.90;;;;;;5073836;28;20209;-80
2023/04/22 03:40:32;;;;;;;6.95;6.22;;;9.30;99.90;;;;;;5074041;28;20205;-80
2023/04/22 03:43:02;;;;;;;13.50;6.22;;;9.30;99.90;;;;;;5073230;28;20217;-80
2023/04/22 03:45:30;;;;;;;6.60;6.00;;;9.30;99.90;;;;;;5073383;28;20205;-81
2023/04/22 03:47:59;;;;;;;7.57;5.78;;;9.30;99.90;;;;;;5073071;28;20322;-81
2023/04/22 03:50:27;;;;;;;8.32;6.55;;;9.20;99.90;;;;;;5073372;28;20205;-81
2023/04/22 03:52:55;;;;;;;8.70;6.05;;;9.20;99.90;;;;;;5072959;28;20225;-81
2023/04/22 03:55:24;;;;;;;8.40;6.68;;;9.20;99.90;;;;;;5073531;28;20199;-81
2023/04/22 03:57:52;;;;;;;7.07;6.38;;;9.20;99.90;;;;;;5073505;28;20203;-81
2023/04/22 04:00:22;;;;;;;9.45;7.25;;;9.20;99.90;;;;;;5072186;28;20296;-80
2023/04/22 04:02:50;;;;;;;8.05;5.75;;;9.20;99.90;;;;;;5072551;28;20285;-81
2023/04/22 04:05:19;;;;;;;8.65;6.72;;;9.20;99.90;;;;;;5073043;28;20211;-80
2023/04/22 04:07:47;;;;;;;7.45;6.72;;;9.20;99.90;;;;;;5073481;28;20259;-80
2023/04/22 04:10:16;;;;;;;6.18;5.60;;;9.10;99.90;;;;;;5072593;28;20261;-81
2023/04/22 04:12:44;;;;;;;8.68;7.78;;;9.10;99.90;;;;;;5072565;28;20221;-80
2023/04/22 04:15:12;;;;;;;8.43;7.05;;;9.10;99.90;;;;;;5072076;28;20194;-81
2023/04/22 04:17:42;;;;;;;7.22;6.45;;;9.10;99.90;;;;;;5072530;28;20213;-81
2023/04/22 04:20:11;;;;;;;6.70;6.05;;;9.10;99.90;;;;;;5073214;28;20221;-81
2023/04/22 04:22:40;;;;;;;8.77;7.18;;;9.10;99.90;;;;;;5073086;28;20288;-81
2023/04/22 04:25:09;;;;;;;7.15;6.45;;;9.10;99.90;;;;;;5072841;28;20217;-81
2023/04/22 04:27:38;;;;;;;9.63;7.53;;;9.10;99.90;;;;;;5072821;28;20201;-81
2023/04/22 04:30:08;;;;;;;9.95;7.43;;;9.20;99.90;;;;;;5072432;28;20205;-81
2023/04/22 04:32:36;;;;;;;10.32;6.65;;;9.20;99.90;;;;;;5072798;28;20232;-80
2023/04/22 04:35:07;;;;;;;8.45;6.72;;;9.20;99.90;;;;;;5072951;28;20284;-80
2023/04/22 04:37:35;;;;;;;10.75;8.00;;;9.20;99.90;;;;;;5072980;28;20208;-81
2023/04/22 04:40:05;;;;;;;8.65;7.47;;;9.20;99.90;;;;;;5072523;28;20311;-80
2023/04/22 04:42:33;;;;;;;10.93;7.50;;;9.30;99.90;;;;;;5072642;28;20228;-80
2023/04/22 04:45:02;;;;;;;8.18;6.72;;;9.30;99.90;;;;;;5072788;28;20209;-79
2023/04/22 04:47:33;;;;;;;9.63;7.68;;;9.30;99.90;;;;;;5072855;28;20201;-80
2023/04/22 04:50:03;;;;;;;7.85;6.93;;;9.30;99.90;;;;;;5072776;28;20233;-80
2023/04/22 04:52:32;;;;;;;7.72;6.55;;;9.30;99.90;;;;;;5072716;28;20232;-81
2023/04/22 04:55:00;;;;;;;8.25;7.32;;;9.40;99.90;;;;;;5072735;28;20204;-81
2023/04/22 04:57:29;;;;;;;8.85;7.03;;;9.40;99.90;;;;;;5072359;28;20211;-80
2023/04/22 04:59:57;;;;;;;8.13;6.95;;;9.40;99.90;;;;;;5072134;28;20228;-81
2023/04/22 05:02:25;;;;;;;11.68;7.32;;;9.40;99.90;;;;;;5071869;28;20231;-80
2023/04/22 05:04:54;;;;;;;9.60;7.30;;;9.40;99.90;;;;;;5072558;28;20228;-81
2023/04/22 05:07:22;;;;;;;7.60;6.80;;;9.40;99.90;;;;;;5072111;28;20207;-81
2023/04/22 05:09:52;;;;;;;6.47;5.85;;;9.40;99.90;;;;;;5071500;28;20193;-81
2023/04/22 05:12:20;;;;;;;9.32;6.40;;;9.50;99.90;;;;;;5071748;28;20229;-80
2023/04/22 05:14:49;;;;;;;10.48;6.80;;;9.50;99.90;;;;;;5072285;28;20211;-80
2023/04/22 05:17:17;;;;;;;8.45;6.75;;;9.50;99.90;;;;;;5072271;28;20198;-80
2023/04/22 05:19:45;;;;;;;7.53;6.72;;;9.60;99.90;;;;;;5072243;28;20217;-80
2023/04/22 05:22:13;;;;;;;7.32;6.70;;;9.60;99.90;;;;;;5072672;28;20231;-80
2023/04/22 05:24:42;;;;;;;6.40;5.80;;;9.60;99.90;;;;;;5076127;28;20209;-81
2023/04/22 05:27:12;;;;;;;9.85;6.68;;;9.70;99.90;;;;;;5076496;28;20209;-81
2023/04/22 05:29:40;;;;;;;9.88;6.55;;;9.70;99.90;;;;;;5075970;28;20209;-81
2023/04/22 05:32:09;;;;;;;9.30;7.57;;;9.70;99.90;;;;;;5076008;28;20228;-80
2023/04/22 05:34:37;;;;;;;7.68;7.00;;;9.80;99.90;;;;;;5076425;28;20201;-80
2023/04/22 05:37:07;;;;;;;8.90;7.28;;;9.90;99.90;;;;;;5076175;28;20197;-81
2023/04/22 05:39:35;;;;;;;11.00;8.18;;;9.90;99.90;;;;;;5076058;28;20263;-81
2023/04/22 05:42:04;;;;;;;8.55;7.75;;;10.00;99.90;;;;;;5073702;28;20283;-81
2023/04/22 05:44:34;;;;;;;9.20;8.30;;;10.10;99.90;;;;;;5070742;28;20217;-81
2023/04/22 05:47:02;;;;;;;9.20;7.80;;;10.10;99.90;;;;;;5076115;28;20208;-81
2023/04/22 05:49:30;;;;;;;7.90;7.10;;;10.20;99.90;;;;;;5076110;28;20208;-80
2023/04/22 05:51:58;;;;;;;8.68;7.35;;;10.20;99.90;;;;;;5075707;28;20220;-81
2023/04/22 05:54:26;;;;;;;9.73;8.57;;;10.30;99.90;;;;;;5076001;28;20209;-81
2023/04/22 05:56:55;;;;;;;11.32;8.52;;;10.40;99.90;;;;;;5075034;28;20197;-81
2023/04/22 05:59:24;;;;;;;10.05;8.95;;;10.40;99.90;;;;;;5073994;28;20215;-81
2023/04/22 06:01:53;;;;;;;9.13;7.97;;;10.50;99.90;;;;;;5074296;28;20207;-82
2023/04/22 06:04:22;;;;;;;10.82;8.70;;;10.60;99.90;;;;;;5075086;28;20201;-82
2023/04/22 06:06:52;;;;;;;9.55;8.65;;;10.70;99.90;;;;;;5075725;28;20205;-82
2023/04/22 06:09:21;;;;;;;9.65;8.65;;;10.80;99.90;;;;;;5075801;28;20215;-82
2023/04/22 06:11:49;;;;;;;6.85;6.28;;;10.90;99.90;;;;;;5075324;28;20241;-81
2023/04/22 06:14:17;;;;;;;12.35;6.65;;;11.00;99.90;;;;;;5075403;28;20216;-81
2023/04/22 06:16:46;;;;;;;10.70;6.93;;;11.10;99.90;;;;;;5075761;28;20205;-81
2023/04/22 06:19:16;;;;;;;7.68;6.63;;;11.10;99.90;;;;;;5075719;28;20209;-81
2023/04/22 06:21:44;;;;;;;7.90;7.10;;;11.20;99.90;;;;;;5074713;28;20221;-81
2023/04/22 06:24:13;;;;;;;18.80;7.05;;;11.30;99.90;;;;;;5075308;28;20220;-81
2023/04/22 06:26:41;;;;;;;10.10;8.13;;;11.30;99.90;;;;;;5075159;28;20205;-81
2023/04/22 06:29:09;;;;;;;7.53;6.82;;;11.40;99.90;;;;;;5074995;28;20215;-81
2023/04/22 06:31:37;;;;;;;11.43;6.93;;;11.40;99.90;;;;;;5074750;28;20205;-81
2023/04/22 06:34:05;;;;;;;6.60;6.00;;;11.60;99.90;;;;;;5075015;28;20212;-81
2023/04/22 06:36:37;;;;;;;6.82;6.22;;;11.70;99.90;;;;;;5075343;28;20212;-89
2023/04/22 06:39:06;;;;;;;7.50;6.30;;;11.80;99.90;;;;;;5074839;28;20204;-84
2023/04/22 06:41:34;;;;;;;11.15;7.15;;;11.80;99.90;;;;;;5074891;28;20217;-84
2023/04/22 06:44:02;;;;;;;9.02;6.45;;;12.00;99.90;;;;;;5075099;28;20231;-83
2023/04/22 06:46:31;;;;;;;7.63;6.57;;;12.00;99.90;;;;;;5074539;28;20231;-84
2023/04/22 06:48:59;;;;;;;6.63;5.95;;;12.10;99.90;;;;;;5070449;28;20276;-79
2023/04/22 06:51:27;;;;;;;7.60;6.80;;;12.10;99.90;;;;;;5074704;28;20270;-80
2023/04/22 06:53:58;;;;;;;7.68;6.90;;;12.20;99.90;;;;;;5069160;28;20221;-79
2023/04/22 06:56:26;;;;;;;12.25;6.38;;;12.30;99.90;;;;;;5074068;28;20288;-79
2023/04/22 06:58:55;;;;;;;11.82;8.20;;;12.40;99.90;;;;;;5074318;28;20216;-80
2023/04/22 07:01:23;;;;;;;7.45;6.55;;;12.60;99.90;;;;;;5073728;28;20224;-82
2023/04/22 07:03:52;;;;;;;9.25;5.57;;;12.70;99.90;;;;;;5071349;28;20225;-82
2023/04/22 07:06:20;;;;;;;6.60;6.00;;;12.80;99.90;;;;;;5073344;28;20201;-82
2023/04/22 07:08:49;;;;;;;9.88;6.65;;;12.90;99.90;;;;;;5073047;28;20197;-82
2023/04/22 07:11:18;;;;;;;14.15;7.13;;;13.00;99.90;;;;;;5070983;28;20208;-82
2023/04/22 07:13:47;;;;;;;8.55;6.57;;;13.20;99.90;;;;;;5065625;28;20224;-81
2023/04/22 07:16:15;;;;;;;11.25;6.85;;;13.40;99.90;;;;;;5064760;28;20216;-82
2023/04/22 07:18:44;;;;;;;8.98;6.13;;;13.50;99.90;;;;;;5073379;28;20208;-81
2023/04/22 07:21:12;;;;;;;5.95;5.43;;;13.70;99.90;;;;;;5071489;28;20225;-81
2023/04/22 07:23:41;;;;;;;6.88;5.70;;;13.90;99.90;;;;;;5072218;28;20248;-81
2023/04/22 07:26:09;;;;;;;10.00;5.85;;;14.00;99.90;;;;;;5073605;28;20266;-81
2023/04/22 07:28:39;;;;;;;7.50;5.55;;;14.10;99.90;;;;;;5073020;28;20212;-80
2023/04/22 07:31:07;;;;;;;12.95;5.78;;;14.30;99.90;;;;;;5072768;28;20194;-80
2023/04/22 07:33:35;;;;;;;8.85;6.80;;;14.40;99.90;;;;;;5073314;28;20256;-79
2023/04/22 07:36:04;;;;;;;11.30;6.40;;;14.60;99.90;;;;;;5073100;28;20202;-79
2023/04/22 07:38:32;;;;;;;7.22;5.80;;;14.90;99.90;;;;;;5066955;28;20211;-79
2023/04/22 07:41:00;;;;;;;7.85;6.85;;;15.10;99.90;;;;;;5072601;28;20221;-78
2023/04/22 07:43:29;;;;;;;11.63;6.55;;;15.20;99.90;;;;;;5072364;28;20227;-83
2023/04/22 07:45:58;;;;;;;7.45;5.13;;;15.40;99.90;;;;;;5069591;28;20250;-79
2023/04/22 07:48:27;;;;;;;6.40;5.80;;;15.40;99.90;;;;;;5056823;28;20205;-79
2023/04/22 07:50:55;;;;;;;5.85;5.32;;;15.40;99.90;;;;;;5071907;28;20189;-78
2023/04/22 07:53:23;;;;;;;6.97;6.05;;;15.50;99.90;;;;;;5068573;28;20223;-80
2023/04/22 07:55:51;;;;;;;7.72;5.88;;;15.80;99.90;;;;;;5071915;28;20207;-80
2023/04/22 07:58:21;;;;;;;7.38;6.10;;;16.10;99.90;;;;;;5071976;28;20209;-85
2023/04/22 08:00:49;;;;;;;7.15;6.50;;;16.20;99.90;;;;;;5071980;28;20309;-81
2023/04/22 08:03:19;;;;;;;13.70;6.20;;;16.50;99.90;;;;;;5059799;28;20229;-82
2023/04/22 08:05:47;;;;;;;10.18;6.55;;;16.90;99.90;;;;;;5072283;28;20213;-82
2023/04/22 08:08:16;;;;;;;20.23;6.32;;;17.50;99.90;;;;;;5072290;28;20218;-81
2023/04/22 08:10:44;;;;;;;8.02;6.07;;;18.20;99.90;;;;;;5072104;28;20272;-82
2023/04/22 08:13:12;;;;;;;7.25;5.68;;;18.80;99.90;;;;;;5072371;28;20229;-83
2023/04/22 08:15:42;;;;;;;7.28;5.85;;;19.40;99.90;;;;;;5072982;28;20254;-83
2023/04/22 08:18:10;;;;;;;6.18;5.63;;;19.80;99.70;;;;;;5072723;28;20215;-80
2023/04/22 08:20:40;;;;;;;8.43;5.90;;;20.30;98.20;;;;;;5071399;28;20220;-81
2023/04/22 08:23:09;;;;;;;8.18;6.93;;;21.00;96.40;;;;;;5071902;28;20225;-81
2023/04/22 08:25:37;;;;;;;7.00;5.68;;;21.60;95.40;;;;;;5072035;28;20198;-79
2023/04/22 08:28:06;;;;;;;6.53;5.95;;;22.30;93.50;;;;;;5071553;28;20201;-78
2023/04/22 08:30:34;;;;;;;6.28;5.68;;;22.80;91.20;;;;;;5072136;28;20205;-76
2023/04/22 08:33:03;;;;;;;6.00;5.50;;;23.20;90.30;;;;;;5071421;28;20224;-84
2023/04/22 08:35:31;;;;;;;8.60;6.05;;;23.40;89.20;;;;;;5071753;28;20205;-82
2023/04/22 08:38:01;;;;;;;9.02;6.38;;;23.50;87.90;;;;;;5072069;28;20208;-79
2023/04/22 08:40:30;;;;;;;8.63;6.45;;;23.70;85.30;;;;;;5072375;28;20204;-79
2023/04/22 08:42:58;;;;;;;6.78;6.05;;;24.10;85.00;;;;;;5071321;28;20217;-79
2023/04/22 08:45:26;;;;;;;6.05;5.55;;;24.20;82.30;;;;;;5071802;28;20229;-81
2023/04/22 08:47:56;;;;;;;5.88;4.90;;;24.30;83.80;;;;;;5071812;28;20224;-82
2023/04/22 08:50:24;;;;;;;5.03;4.53;;;24.60;80.50;;;;;;5071993;28;20213;-81
2023/04/22 08:52:52;;;;;;;7.97;4.68;;;24.50;78.40;;;;;;5072242;28;20236;-80
2023/04/22 08:55:22;;;;;;;4.82;4.22;;;24.10;79.20;;;;;;5072083;28;20211;-80
2023/04/22 08:57:51;;;;;;;5.18;3.95;;;24.00;78.50;;;;;;5070959;28;20219;-81
2023/04/22 09:00:19;;;;;;;8.55;4.40;;;23.80;79.20;;;;;;5072528;28;20219;-80
2023/04/22 09:02:50;;;;;;;6.78;3.95;;;24.40;78.60;;;;;;5071665;28;20283;-80
2023/04/22 09:05:20;;;;;;;5.28;4.55;;;24.60;78.20;;;;;;5072160;28;20242;-80
2023/04/22 09:07:48;;;;;;;4.68;4.03;;;24.70;77.60;;;;;;5072401;28;20215;-84
2023/04/22 09:10:17;;;;;;;5.68;4.22;;;24.70;77.60;;;;;;5072294;28;20197;-86
2023/04/22 09:12:48;;;;;;;13.38;4.47;;;24.80;77.20;;;;;;5072085;28;20299;-84
2023/04/22 09:15:16;;;;;;;15.80;4.30;;;24.70;75.80;;;;;;5072449;28;20276;-82
2023/04/22 09:17:45;;;;;;;4.15;3.75;;;24.80;76.60;;;;;;5072622;28;20205;-82
2023/04/22 09:20:14;;;;;;;13.68;4.40;;;24.80;76.10;;;;;;5072125;28;20223;-83
2023/04/22 09:22:44;;;;;;;4.32;3.92;;;24.60;75.60;;;;;;5063226;28;20239;-82
2023/04/22 09:25:17;;;;;;;7.70;4.20;;;24.70;75.80;;;;;;5071758;28;20227;-83
2023/04/22 09:27:50;;;;;;;8.50;4.28;;;25.10;75.20;;;;;;5072534;28;20306;-83
2023/04/22 09:30:23;;;;;;;5.22;3.97;;;25.50;74.60;;;;;;5072165;28;20287;-83
2023/04/22 09:32:55;;;;;;;4.50;4.05;;;25.60;72.80;;;;;;5071802;28;20244;-81
2023/04/22 09:35:24;;;;;;;6.78;3.95;;;;;;;;;;5072334;28;20232;-81
2023/04/22 09:37:52;;;;;;;7.13;4.07;;;25.60;72.00;;;;;;5071603;28;20216;-79
2023/04/22 09:40:21;;;;;;;5.07;4.03;;;25.90;71.20;;;;;;5072127;28;20224;-78
2023/04/22 09:42:52;;;;;;;4.00;3.60;;;25.90;72.30;;;;;;5071776;28;20229;-80
2023/04/22 09:45:29;;;;;;;5.95;3.80;;;26.40;69.70;;;;;;5072040;28;20232;-80
2023/04/22 09:47:59;;;;;;;4.10;3.65;;;25.90;69.60;;;;;;5071973;28;20227;-81
2023/04/22 09:50:28;;;;;;;3.55;3.25;;;26.20;71.30;;;;;;5071408;28;20246;-85
2023/04/22 09:52:59;;;;;;;4.40;3.88;;;26.40;69.20;;;;;;5071405;28;20249;-79
2023/04/22 09:55:30;;;;;;;6.50;3.80;;;26.50;67.70;;;;;;5071603;28;20293;-79
2023/04/22 09:58:06;;;;;;;5.10;3.45;;;26.40;67.90;;;;;;5071784;28;20226;-79
2023/04/22 10:00:36;;;;;;;5.40;3.47;;;26.30;68.80;;;;;;5071766;28;20279;-79
2023/04/22 10:03:06;;;;;;;3.35;3.05;;;26.30;67.70;;;;;;5071401;28;20347;-79
2023/04/22 10:05:38;;;;;;;4.25;3.53;;;26.10;66.80;;;;;;5072321;28;20277;-79
2023/04/22 10:08:08;;;;;;;4.13;3.20;;;26.00;67.60;;;;;;5071992;28;20234;-79
2023/04/22 10:10:37;;;;;;;8.55;3.72;;;26.20;66.90;;;;;;5075447;28;20227;-79
2023/04/22 10:13:07;;;;;;;4.87;3.20;;;26.50;65.70;;;;;;5075439;28;20240;-79
2023/04/22 10:15:38;;;;;;;3.40;3.10;;;26.80;65.20;;;;;;5075607;28;20264;-80
2023/04/22 10:18:10;;;;;;;4.95;3.95;;;26.60;66.00;;;;;;5075835;28;20227;-79
2023/04/22 10:20:40;;;;;;;5.53;3.63;;;26.30;64.50;;;;;;5075737;28;20238;-79
2023/04/22 10:23:14;;;;;;;4.10;3.10;;;26.30;64.80;;;;;;5074472;28;20236;-79
2023/04/22 10:25:42;;;;;;;4.22;3.60;;;25.70;63.70;;;;;;5075352;28;20288;-80
2023/04/22 10:28:13;;;;;;;4.20;3.08;;;25.40;64.30;;;;;;5075146;28;20212;-79
2023/04/22 10:30:42;;;;;;;4.00;3.08;;;25.10;65.40;;;;;;5075231;28;20212;-79
2023/04/22 10:33:38;;;;;;;4.50;3.40;;;25.10;65.70;;;;;;5074511;28;20221;-79
2023/04/22 10:36:09;;;;;;;3.33;2.95;;;25.30;65.10;;;;;;5075150;28;20215;-80
2023/04/22 10:38:39;;;;;;;4.07;3.20;;;25.20;64.80;;;;;;5075122;28;20297;-78
2023/04/22 10:41:13;;;;;;;6.35;4.30;;;24.90;65.60;;;;;;5074812;28;20193;-86
2023/04/22 10:43:44;;;;;;;2.72;2.47;;;24.70;66.20;;;;;;5074369;28;20224;-78
2023/04/22 10:46:58;;;;;;;3.92;3.45;;;25.10;66.70;;;;;;5075035;28;20213;-77
2023/04/22 10:49:29;;;;;;;5.13;3.20;;;25.20;63.50;;;;;;4993853;28;20222;-78
2023/04/22 10:51:58;;;;;;;5.78;3.15;;;25.50;63.70;;;;;;5066883;28;20212;-78
2023/04/22 10:55:06;;;;;;;3.70;3.35;;;25.80;64.10;;;;;;5074805;28;20205;-78
2023/04/22 10:57:38;;;;;;;3.35;2.92;;;26.10;64.10;;;;;;5068241;28;20209;-78
2023/04/22 11:00:46;;;;;;;4.75;2.72;;;26.10;64.20;;;;;;5074582;28;20207;-78
2023/04/22 11:03:24;;;;;;;3.80;2.97;;;26.20;64.00;;;;;;5074446;28;20319;-78
2023/04/22 11:06:13;;;;;;;3.33;2.70;;;26.30;63.60;;;;;;5074717;28;20213;-77
2023/04/22 11:08:45;;;;;;;4.10;3.08;;;26.10;63.70;;;;;;5074410;28;20205;-77
2023/04/22 11:11:13;;;;;;;19.77;3.20;;;26.00;63.80;;;;;;5074844;28;20197;-78
2023/04/22 11:13:42;;;;;;;3.38;3.03;;;25.60;62.80;;;;;;5074363;28;20213;-77
2023/04/22 11:16:12;;;;;;;4.82;3.50;;;25.90;62.60;;;;;;5074531;28;20243;-77
2023/04/22 11:18:40;;;;;;;4.00;2.88;;;25.90;63.00;;;;;;5074432;28;20212;-78
2023/04/22 11:21:09;;;;;;;3.53;3.22;;;26.00;63.40;;;;;;5073367;28;20205;-77
2023/04/22 11:23:37;;;;;;;3.13;2.90;;;26.60;62.40;;;;;;5073539;28;20236;-77
2023/04/22 11:26:06;;;;;;;6.00;3.17;;;26.70;61.20;;;;;;5074432;28;20226;-77
2023/04/22 11:28:35;;;;;;;5.90;3.47;;;26.90;61.00;;;;;;5074135;28;20215;-77
2023/04/22 11:31:05;;;;;;;4.63;2.50;;;26.60;58.70;;;;;;5074183;28;20303;-77
2023/04/22 11:33:35;;;;;;;8.32;3.08;;;26.10;60.40;;;;;;5074008;28;20250;-78
2023/04/22 11:36:04;;;;;;;4.93;3.13;;;26.00;60.50;;;;;;5074300;28;20240;-77
2023/04/22 11:38:32;;;;;;;2.67;2.47;;;26.00;60.20;;;;;;5073991;28;20215;-78
2023/04/22 11:41:00;;;;;;;4.72;2.83;;;26.20;61.10;;;;;;5073733;28;20224;-77
2023/04/22 11:43:28;;;;;;;4.85;2.67;;;26.20;59.50;;;;;;5073702;28;20240;-77
2023/04/22 11:45:57;;;;;;;4.25;2.80;;;26.10;59.40;;;;;;5073810;28;20288;-77
2023/04/22 11:48:25;;;;;;;3.30;3.00;;;26.20;60.00;;;;;;5074014;28;20216;-77
2023/04/22 11:51:11;;;;;;;3.85;3.08;;;26.30;59.60;;;;;;5073633;28;20220;-78
2023/04/22 11:53:40;;;;;;;3.10;2.53;;;26.30;58.60;;;;;;5073730;28;20240;-77
2023/04/22 11:56:08;;;;;;;4.28;2.78;;;26.20;58.40;;;;;;5073151;28;20216;-77
2023/04/22 11:58:39;;;;;;;6.40;2.75;;;26.40;58.90;;;;;;5073223;28;20228;-77
2023/04/22 12:01:13;;;;;;;3.10;2.80;;;26.50;58.40;;;;;;5073491;28;20220;-77
2023/04/22 12:03:41;;;;;;;3.97;2.63;;;26.70;58.90;;;;;;5073087;28;20240;-77
2023/04/22 12:06:11;;;;;;;3.35;2.85;;;27.00;57.80;;;;;;5073217;28;20251;-77
2023/04/22 12:08:43;;;;;;;4.78;3.25;;;26.80;57.80;;;;;;5073415;28;20228;-77
2023/04/22 12:11:12;;;;;;;4.55;2.60;;;26.70;57.10;;;;;;5073289;28;20234;-77
2023/04/22 12:13:45;;;;;;;3.88;3.08;;;26.70;57.60;;;;;;5072573;28;20236;-77
2023/04/22 12:16:15;;;;;;;2.53;2.33;;;26.70;57.80;;;;;;5073761;28;20246;-77
2023/04/22 12:18:49;;;;;;;3.25;2.45;;;26.70;58.20;;;;;;5073224;28;20230;-78
2023/04/22 12:21:20;;;;;;;4.75;2.67;;;26.80;57.40;;;;;;5073014;28;20218;-79
2023/04/22 12:23:51;;;;;;;5.38;2.90;;;27.00;57.30;;;;;;5072511;28;20247;-79
2023/04/22 12:26:23;;;;;;;4.60;3.05;;;27.30;57.60;;;;;;5072960;28;20228;-79
2023/04/22 12:28:54;;;;;;;5.68;4.00;;;27.30;57.00;;;;;;5072957;28;20219;-78
2023/04/22 12:31:23;;;;;;;5.38;3.70;;;27.20;56.90;;;;;;5072886;28;20228;-78
2023/04/22 12:33:51;;;;;;;3.78;3.03;;;27.20;57.10;;;;;;5072594;28;20236;-78
2023/04/22 12:36:22;;;;;;;3.58;3.00;;;27.10;56.60;;;;;;5072776;28;20251;-78
2023/04/22 12:38:50;;;;;;;6.35;4.93;;;27.00;57.70;;;;;;5072637;28;20220;-78
2023/04/22 12:41:18;;;;;;;3.78;2.97;;;27.10;56.90;;;;;;5073029;28;20235;-77
2023/04/22 12:43:47;;;;;;;3.95;3.33;;;27.30;56.40;;;;;;5072784;28;20244;-78
2023/04/22 12:46:15;;;;;;;4.40;3.60;;;27.50;56.50;;;;;;5073018;28;20224;-78
2023/04/22 12:48:43;;;;;;;6.30;3.15;;;27.60;55.90;;;;;;5072691;28;20232;-78
2023/04/22 12:51:11;;;;;;;2.90;2.60;;;27.30;55.00;;;;;;5072515;28;20226;-78
2023/04/22 12:53:41;;;;;;;2.78;2.58;;;26.80;55.80;;;;;;5072438;28;20246;-77
2023/04/22 12:56:09;;;;;;;2.58;2.38;;;26.80;56.60;;;;;;5072387;28;20218;-77
2023/04/22 12:58:38;;;;;;;2.55;2.35;;;26.80;57.00;;;;;;5072706;28;20219;-78
2023/04/22 13:01:06;;;;;;;2.78;2.50;;;26.90;57.50;;;;;;5072600;28;20226;-78